Time;durP1;ratioP1;P1;durP2;ratioP2;P2;SDS_P1;SDS_P2;PMS_P1;PMS_P2;Temp;Humidity;BMP_temperature;BMP_pressure;BME280_temperature;BME280_humidity;BME280_pressure;Samples;Min_cycle;Max_cycle;Signal;HPM_P1;HPM_P2
2023/08/24 00:01:47;;;;;;;16.85;12.32;;;;;;;;;;5105717;27;20201;-65
2023/08/24 00:04:13;;;;;;;20.30;12.98;;;;;;;;;;5106163;28;20201;-63
2023/08/24 00:06:40;;;;;;;16.23;11.75;;;;;;;;;;5105245;27;20288;-64
2023/08/24 00:09:07;;;;;;;16.60;12.10;;;;;;;;;;5105973;28;20205;-65
2023/08/24 00:11:33;;;;;;;14.43;12.27;;;;;;;;;;5105198;27;20201;-65
2023/08/24 00:13:59;;;;;;;14.35;13.00;;;;;;;;;;5105617;28;20349;-64
2023/08/24 00:16:27;;;;;;;14.52;13.20;;;;;;;;;;5105126;28;20261;-66
2023/08/24 00:18:54;;;;;;;13.48;12.23;;;;;;;;;;5105317;27;20205;-66
2023/08/24 00:21:22;;;;;;;13.18;11.88;;;;;;;;;;5105032;27;20279;-64
2023/08/24 00:23:49;;;;;;;15.60;13.27;;;;;;;;;;5105440;28;20280;-64
2023/08/24 00:26:16;;;;;;;12.68;11.60;;;;;;;;;;5105816;27;20289;-64
2023/08/24 00:28:43;;;;;;;13.60;12.52;;;;;;;;;;5105080;28;20197;-64
2023/08/24 00:31:09;;;;;;;14.20;12.32;;;;;;;;;;5105221;28;20722;-63
2023/08/24 00:33:37;;;;;;;14.45;13.07;;;;;;;;;;5103575;27;20216;-63
2023/08/24 00:36:04;;;;;;;14.77;13.15;;;;;;;;;;5105174;27;20197;-63
2023/08/24 00:38:31;;;;;;;26.48;14.13;;;;;;;;;;5104240;28;20757;-63
2023/08/24 00:40:58;;;;;;;14.52;13.02;;;;;;;;;;5105467;27;20205;-62
2023/08/24 00:43:25;;;;;;;14.88;13.45;;;;;;;;;;5105709;27;20239;-63
2023/08/24 00:45:52;;;;;;;13.77;12.48;;;;;;;;;;5103161;27;20668;-63
2023/08/24 00:48:19;;;;;;;15.13;13.80;;;;;;;;;;5103783;28;20196;-62
2023/08/24 00:50:47;;;;;;;14.25;12.82;;;;;;;;;;5103949;28;20224;-63
2023/08/24 00:53:13;;;;;;;16.58;12.60;;;;;;;;;;5104596;28;20285;-63
2023/08/24 00:55:40;;;;;;;12.95;11.65;;;;;;;;;;5104547;28;20209;-62
2023/08/24 00:58:07;;;;;;;14.45;13.15;;;;;;;;;;5102974;28;20224;-63
2023/08/24 01:00:33;;;;;;;14.85;13.25;;;;;;;;;;5103772;27;20232;-62
2023/08/24 01:03:00;;;;;;;15.13;13.45;;;;;;;;;;5104347;27;20288;-62
2023/08/24 01:05:26;;;;;;;13.15;11.75;;;;;;;;;;5103796;27;20273;-62
2023/08/24 01:07:54;;;;;;;14.60;13.18;;;;;;;;;;5104123;28;20689;-63
2023/08/24 01:10:20;;;;;;;14.20;12.52;;;;;;;;;;5104213;28;20270;-62
2023/08/24 01:12:52;;;;;;;15.35;12.90;;;;;;;;;;5104669;28;20256;-63
2023/08/24 01:15:21;;;;;;;13.35;12.15;;;;;;;;;;5102747;28;20746;-62
2023/08/24 01:17:48;;;;;;;13.38;12.13;;;;;;;;;;5103992;28;20201;-62
2023/08/24 01:20:16;;;;;;;14.60;12.23;;;;;;;;;;5103964;27;20193;-62
2023/08/24 01:22:47;;;;;;;14.15;12.90;;;;;;;;;;5104479;27;20296;-63
2023/08/24 01:25:17;;;;;;;14.93;13.43;;;;;;;;;;5103915;28;20201;-62
2023/08/24 01:27:45;;;;;;;14.25;13.02;;;;;;;;;;5103868;28;20358;-63
2023/08/24 01:30:11;;;;;;;12.75;11.65;;;;;;;;;;5104361;27;20251;-62
2023/08/24 01:32:38;;;;;;;16.13;13.23;;;;;;;;;;5102410;28;20259;-62
2023/08/24 01:35:06;;;;;;;12.88;11.88;;;;;;;;;;5103977;28;20259;-63
2023/08/24 01:37:33;;;;;;;14.55;13.18;;;;;;;;;;5104128;27;20205;-62
2023/08/24 01:40:05;;;;;;;12.93;11.73;;;;;;;;;;5096095;28;20205;-63
2023/08/24 01:42:32;;;;;;;13.55;12.35;;;;;;;;;;5095742;27;20721;-61
2023/08/24 01:45:02;;;;;;;13.20;12.18;;;;;;;;;;5103214;27;21079;-62
2023/08/24 01:47:29;;;;;;;14.15;12.68;;;;;;;;;;5101569;27;20667;-62
2023/08/24 01:49:56;;;;;;;14.57;12.57;;;;;;;;;;5104016;28;20290;-63
2023/08/24 01:52:22;;;;;;;13.88;12.50;;;;;;;;;;5103396;28;20270;-63
2023/08/24 01:54:49;;;;;;;13.77;12.63;;;;;;;;;;5103765;28;20639;-61
2023/08/24 01:57:15;;;;;;;13.20;12.30;;;;;;;;;;5102750;28;20299;-62
2023/08/24 01:59:42;;;;;;;13.48;12.20;;;;;;;;;;5103615;28;20698;-61
2023/08/24 02:02:10;;;;;;;12.93;11.82;;;;;;;;;;5103633;28;20201;-62
2023/08/24 02:04:36;;;;;;;13.60;12.32;;;;;;;;;;5103841;28;20228;-62
2023/08/24 02:07:03;;;;;;;12.05;11.23;;;;;;;;;;5102173;27;20204;-62
2023/08/24 02:09:30;;;;;;;15.05;13.60;;;;;;;;;;5102118;28;20225;-64
2023/08/24 02:11:56;;;;;;;14.20;12.90;;;;;;;;;;5102443;28;20634;-63
2023/08/24 02:14:23;;;;;;;13.60;12.50;;;;;;;;;;5103684;28;20651;-63
2023/08/24 02:16:49;;;;;;;12.98;11.98;;;;;;;;;;5103108;28;20227;-62
2023/08/24 02:19:17;;;;;;;13.48;12.32;;;;;;;;;;5103146;28;20212;-63
2023/08/24 02:21:43;;;;;;;13.70;12.50;;;;;;;;;;5102078;28;20224;-62
2023/08/24 02:24:10;;;;;;;14.70;13.40;;;;;;;;;;5102492;28;20246;-63
2023/08/24 02:26:37;;;;;;;13.55;12.30;;;;;;;;;;5102739;28;20670;-62
2023/08/24 02:29:03;;;;;;;14.50;13.13;;;;;;;;;;5104255;28;20228;-63
2023/08/24 02:31:30;;;;;;;13.75;12.45;;;;;;;;;;5100713;28;20266;-64
2023/08/24 02:33:56;;;;;;;16.02;12.65;;;;;;;;;;5102304;28;20294;-64
2023/08/24 02:36:24;;;;;;;15.02;13.27;;;;;;;;;;5102136;28;20270;-64
2023/08/24 02:38:50;;;;;;;17.25;13.77;;;;;;;;;;5102017;28;20212;-61
2023/08/24 02:41:17;;;;;;;15.57;14.00;;;;;;;;;;5101301;28;20662;-65
2023/08/24 02:43:43;;;;;;;14.60;13.05;;;;;;;;;;5101659;28;20323;-63
2023/08/24 02:46:10;;;;;;;13.02;12.02;;;;;;;;;;5101001;28;20227;-64
2023/08/24 02:48:37;;;;;;;14.00;12.70;;;;;;;;;;5102650;28;20287;-63
2023/08/24 02:51:04;;;;;;;14.70;12.25;;;;;;;;;;5102465;28;20208;-63
2023/08/24 02:53:32;;;;;;;13.90;12.60;;;;;;;;;;5102894;28;20670;-62
2023/08/24 02:55:58;;;;;;;13.95;12.75;;;;;;;;;;5104939;27;21298;-63
2023/08/24 02:58:25;;;;;;;14.48;13.18;;;;;;;;;;5107271;27;20205;-63
2023/08/24 03:00:52;;;;;;;13.68;12.57;;;;;;;;;;5107820;27;20601;-63
2023/08/24 03:03:18;;;;;;;13.85;12.65;;;;;;;;;;5108128;27;20658;-62
2023/08/24 03:05:53;;;;;;;14.15;12.75;;;;;;;;;;5107549;28;20200;-63
2023/08/24 03:08:19;;;;;;;14.65;13.43;;;;;;;;;;5107165;27;20197;-62
2023/08/24 03:10:47;;;;;;;14.70;13.45;;;;;;;;;;5107593;27;20240;-62
2023/08/24 03:13:14;;;;;;;14.20;12.70;;;;;;;;;;5106679;28;20270;-62
2023/08/24 03:15:41;;;;;;;13.93;12.52;;;;;;;;;;5107609;28;20281;-62
2023/08/24 03:18:07;;;;;;;14.93;13.45;;;;;;;;;;5107931;27;20209;-62
2023/08/24 03:20:34;;;;;;;13.50;12.38;;;;;;;;;;5106855;27;20275;-62
2023/08/24 03:23:00;;;;;;;14.48;13.27;;;;;;;;;;5107257;27;20209;-62
2023/08/24 03:25:27;;;;;;;16.50;13.77;;;;;;;;;;5106271;27;20250;-62
2023/08/24 03:27:55;;;;;;;15.38;14.02;;;;;;;;;;5106710;28;20225;-62
2023/08/24 03:30:22;;;;;;;15.85;14.15;;;;;;;;;;5106209;28;20212;-62
2023/08/24 03:32:49;;;;;;;14.50;13.15;;;;;;;;;;5106338;27;20694;-62
2023/08/24 03:35:15;;;;;;;15.35;13.30;;;;;;;;;;5107560;27;20236;-62
2023/08/24 03:37:42;;;;;;;13.68;12.38;;;;;;;;;;5106533;28;20728;-62
2023/08/24 03:40:09;;;;;;;13.55;12.55;;;;;;;;;;5106934;28;20228;-62
2023/08/24 03:42:35;;;;;;;15.60;14.07;;;;;;;;;;5106520;28;20316;-62
2023/08/24 03:45:03;;;;;;;13.77;12.40;;;;;;;;;;5106041;28;20232;-61
2023/08/24 03:47:30;;;;;;;14.38;12.98;;;;;;;;;;5105169;28;20249;-63
2023/08/24 03:49:56;;;;;;;16.05;13.80;;;;;;;;;;5107477;28;20220;-63
2023/08/24 03:52:23;;;;;;;15.57;14.15;;;;;;;23.57;0.00;108662.38;5106964;27;20225;-62
2023/08/24 03:54:50;;;;;;;14.88;13.43;;;;;;;;;;5106136;28;20224;-62
2023/08/24 03:57:16;;;;;;;16.02;13.65;;;;;;;;;;5106578;28;20239;-62
2023/08/24 03:59:43;;;;;;;14.82;13.63;;;;;;;;;;5106417;28;20277;-64
2023/08/24 04:02:10;;;;;;;29.77;19.25;;;;;;;;;;5106548;27;20197;-63
2023/08/24 04:04:37;;;;;;;31.60;25.17;;;;;;;;;;5106747;28;20655;-64
2023/08/24 04:07:03;;;;;;;20.90;15.75;;;;;;;;;;5105384;28;20300;-64
2023/08/24 04:09:30;;;;;;;14.32;13.07;;;;;;;;;;5106409;27;20220;-64
2023/08/24 04:11:56;;;;;;;15.75;14.30;;;;;;;;;;5107120;27;20193;-62
2023/08/24 04:14:23;;;;;;;15.05;13.63;;;;;;;;;;5106218;27;20213;-63
2023/08/24 04:16:49;;;;;;;15.98;14.25;;;;;;;;;;5106964;27;20302;-64
2023/08/24 04:19:17;;;;;;;19.58;14.27;;;;;;;;;;5107054;27;20197;-63
2023/08/24 04:21:43;;;;;;;15.15;13.45;;;;;;;;;;5106527;27;20282;-63
2023/08/24 04:24:10;;;;;;;15.88;14.38;;;;;;;;;;5106570;28;20193;-63
2023/08/24 04:26:36;;;;;;;18.75;14.48;;;;;;;;;;5105715;28;20710;-63
2023/08/24 04:29:03;;;;;;;15.45;13.70;;;;;;;;;;5106501;28;20798;-63
2023/08/24 04:31:29;;;;;;;23.77;17.08;;;;;;;;;;5105006;28;20209;-63
2023/08/24 04:33:56;;;;;;;20.27;18.05;;;;;;;;;;5104751;28;20221;-63
2023/08/24 04:36:23;;;;;;;22.65;15.93;;;;;;;;;;5104799;27;20193;-63
2023/08/24 04:38:50;;;;;;;17.23;14.70;;;;;;;;;;5104109;28;20193;-62
2023/08/24 04:41:16;;;;;;;20.77;15.07;;;;;;;;;;5104698;28;20250;-63
2023/08/24 04:43:43;;;;;;;16.48;14.75;;;;;;;;;;5103036;27;20246;-63
2023/08/24 04:46:09;;;;;;;16.10;13.77;;;;;;;;;;5102379;28;20717;-63
2023/08/24 04:48:36;;;;;;;33.92;23.17;;;;;;;;;;5104711;28;20245;-63
2023/08/24 04:51:02;;;;;;;29.75;23.08;;;;;;;-142.91;100.00;57695.25;5106322;28;20220;-63
2023/08/24 04:53:30;;;;;;;19.85;17.83;;;;;;;;;;5106613;28;20236;-63
2023/08/24 04:55:57;;;;;;;17.80;15.45;;;;;;;;;;5103087;28;20197;-63
2023/08/24 04:58:24;;;;;;;16.98;15.15;;;;;;;;;;5091074;27;20690;-63
2023/08/24 05:00:50;;;;;;;18.10;15.48;;;;;;;;;;5088912;28;20200;-63
2023/08/24 05:03:17;;;;;;;21.63;16.10;;;;;;;;;;5093818;28;20221;-63
2023/08/24 05:05:43;;;;;;;18.08;14.75;;;;;;;;;;5090312;28;20201;-63
2023/08/24 05:08:11;;;;;;;16.45;14.50;;;;;;;;;;5099788;27;20246;-63
2023/08/24 05:10:38;;;;;;;20.67;15.15;;;;;;;;;;5105837;27;20326;-63
2023/08/24 05:13:05;;;;;;;21.05;16.13;;;;;;;;;;5105905;28;20652;-62
2023/08/24 05:15:31;;;;;;;19.80;14.70;;;;;;;;;;5106142;28;20220;-63
2023/08/24 05:17:59;;;;;;;18.92;14.35;;;;;;;;;;5094480;28;20251;-63
2023/08/24 05:20:25;;;;;;;15.05;13.85;;;;;;;;;;5089600;28;20288;-63
2023/08/24 05:22:54;;;;;;;18.35;14.40;;;;;;;;;;5091616;27;20240;-63
2023/08/24 05:25:21;;;;;;;21.55;15.07;;;;;;;;;;5091210;28;20201;-63
2023/08/24 05:27:49;;;;;;;16.52;14.95;;;;;;;;;;5089192;27;20205;-62
2023/08/24 05:30:15;;;;;;;21.35;15.07;;;;;;;;;;5087827;27;20193;-63
2023/08/24 05:32:42;;;;;;;20.00;14.70;;;;;;;;;;5091007;27;20210;-63
2023/08/24 05:35:09;;;;;;;16.60;15.02;;;;;;;;;;5092167;28;20222;-63
2023/08/24 05:37:35;;;;;;;17.55;14.43;;;;;;;;;;5101900;27;20240;-63
2023/08/24 05:40:02;;;;;;;16.65;14.43;;;;;;;;;;5105741;27;20647;-64
2023/08/24 05:42:29;;;;;;;17.60;15.45;;;;;;;;;;5105814;28;20232;-64
2023/08/24 05:44:57;;;;;;;22.10;15.27;;;;;;;;;;5104657;28;20200;-64
2023/08/24 05:47:23;;;;;;;16.73;15.02;;;;;;;;;;5104531;28;20246;-63
2023/08/24 05:49:50;;;;;;;23.88;15.05;;;;;;;;;;5104650;28;21513;-63
2023/08/24 05:52:16;;;;;;;15.80;13.82;;;;;;;;;;5090189;28;20733;-64
2023/08/24 05:54:43;;;;;;;17.08;13.98;;;;;;;;;;5087186;28;20653;-63
2023/08/24 05:57:09;;;;;;;14.93;13.30;;;;;;;;;;5091530;27;20224;-64
2023/08/24 05:59:35;;;;;;;19.80;13.93;;;;;;;;;;5103595;28;20293;-63
2023/08/24 06:02:03;;;;;;;15.07;13.60;;;;;;;;;;5101978;28;20197;-63
2023/08/24 06:04:30;;;;;;;14.23;12.73;;;;;;;;;;5094934;28;20262;-62
2023/08/24 06:06:56;;;;;;;14.80;12.95;;;;;;;;;;5102308;28;20305;-63
2023/08/24 06:09:22;;;;;;;15.23;13.63;;;;;;;;;;5102894;28;20201;-63
2023/08/24 06:11:49;;;;;;;14.65;13.13;;;;;;;;;;5097673;28;20273;-63
2023/08/24 06:14:16;;;;;;;15.30;13.90;;;;;;;;;;5103477;28;20273;-64
2023/08/24 06:16:42;;;;;;;17.65;13.68;;;;;;;;;;5104588;28;20296;-63
2023/08/24 06:19:10;;;;;;;15.10;13.48;;;;;;;;;;5090117;28;20528;-63
2023/08/24 06:21:36;;;;;;;20.27;13.70;;;;;;;;;;5094150;27;20258;-62
2023/08/24 06:24:03;;;;;;;14.57;13.18;;;;;;;;;;5088802;28;20197;-63
2023/08/24 06:26:30;;;;;;;16.48;14.60;;;;;;;;;;5089904;28;20230;-63
2023/08/24 06:28:56;;;;;;;14.65;13.45;;;;;;;;;;5088728;28;20197;-64
2023/08/24 06:31:23;;;;;;;17.50;14.38;;;;;;;;;;5091091;28;20261;-63
2023/08/24 06:33:50;;;;;;;18.58;13.38;;;;;;;;;;5092392;27;20671;-63
2023/08/24 06:36:17;;;;;;;14.85;12.45;;;;;;;;;;5093455;27;20254;-63
2023/08/24 06:38:44;;;;;;;15.98;13.18;;;;;;;;;;5089441;28;20241;-64
2023/08/24 06:41:12;;;;;;;11.82;10.93;;;;;;;;;;5089526;27;20713;-64
2023/08/24 06:43:39;;;;;;;13.48;12.20;;;;;;;;;;5106549;27;20205;-64
2023/08/24 06:46:07;;;;;;;12.90;11.80;;;;;;;;;;5096184;27;20198;-64
2023/08/24 06:48:34;;;;;;;12.20;11.10;;;;;;;;;;5092602;28;20258;-64
2023/08/24 06:51:00;;;;;;;11.85;10.35;;;;;;;;;;5106426;27;20220;-64
2023/08/24 06:53:28;;;;;;;13.55;12.20;;;;;;;;;;5104563;28;20224;-64
2023/08/24 06:55:55;;;;;;;18.15;12.35;;;;;;;;;;5108604;27;20300;-65
2023/08/24 06:58:21;;;;;;;13.23;11.13;;;;;;;;;;5105543;27;20223;-65
2023/08/24 07:00:50;;;;;;;16.25;14.73;;;;;;;;;;5107919;27;20197;-65
2023/08/24 07:03:17;;;;;;;16.92;15.23;;;;;;;;;;5108850;27;20637;-65
2023/08/24 07:05:43;;;;;;;13.07;11.80;;;;;;;;;;5108640;28;20196;-65
2023/08/24 07:08:10;;;;;;;14.23;11.45;;;;;;;;;;5108407;28;20201;-65
2023/08/24 07:10:37;;;;;;;15.85;14.30;;;;;;;;;;5095811;28;20247;-63
2023/08/24 07:13:06;;;;;;;11.40;10.48;;;;;;;;;;5094632;27;20204;-63
2023/08/24 07:15:34;;;;;;;14.13;12.68;;;;;;;;;;5102629;28;20255;-64
2023/08/24 07:18:00;;;;;;;13.50;12.10;;;;;;;;;;5106654;27;20204;-63
2023/08/24 07:20:27;;;;;;;14.00;11.23;;;;;;;;;;5108194;27;20266;-64
2023/08/24 07:22:54;;;;;;;11.77;10.77;;;;;;;;;;5107252;27;20690;-64
2023/08/24 07:25:21;;;;;;;13.55;12.13;;;;;;;;;;5108483;28;20296;-64
2023/08/24 07:27:49;;;;;;;10.98;10.18;;;;;;;;;;5105940;28;20658;-64
2023/08/24 07:30:15;;;;;;;11.10;10.23;;;;;;;;;;5108911;27;20205;-64
2023/08/24 07:32:42;;;;;;;11.82;10.18;;;;;;;;;;5108020;27;20697;-65
2023/08/24 07:35:09;;;;;;;11.52;10.27;;;;;;;;;;5107911;27;20777;-65
2023/08/24 07:37:35;;;;;;;10.43;9.50;;;;;;;;;;5107411;28;20258;-65
2023/08/24 07:40:02;;;;;;;11.77;10.10;;;;;;;;;;5107522;28;20666;-65
2023/08/24 07:42:28;;;;;;;11.65;10.52;;;;;;;;;;5104943;27;20232;-65
2023/08/24 07:44:56;;;;;;;11.52;10.20;;;;;;;;;;5106273;28;20225;-64
2023/08/24 07:47:23;;;;;;;14.25;10.00;;;;;;;;;;5096085;28;20204;-64
2023/08/24 07:49:49;;;;;;;13.80;12.63;;;;;;;;;;5095366;28;20286;-64
2023/08/24 07:52:16;;;;;;;13.85;12.55;;;;;;;;;;5107317;28;21591;-64
2023/08/24 07:54:44;;;;;;;10.95;10.05;;;;;;;;;;5106669;28;20236;-65
2023/08/24 07:57:10;;;;;;;10.35;9.50;;;;;;;;;;5099669;27;20209;-65
2023/08/24 07:59:37;;;;;;;11.32;10.13;;;;;;;;;;5093798;28;20675;-65
2023/08/24 08:02:05;;;;;;;11.05;10.23;;;;;;;;;;5106563;27;20637;-65
2023/08/24 08:04:31;;;;;;;10.07;9.15;;;;;;;;;;5093475;27;20193;-65
2023/08/24 08:06:58;;;;;;;11.35;10.38;;;;;;;;;;5094486;27;20193;-65
2023/08/24 08:09:24;;;;;;;32.28;29.08;;;;;;;;;;5106887;28;20196;-65
2023/08/24 08:11:51;;;;;;;13.23;10.30;;;;;;;;;;5107827;27;20200;-65
2023/08/24 08:14:18;;;;;;;12.63;11.52;;;;;;;;;;5107683;28;20257;-65
2023/08/24 08:16:44;;;;;;;12.02;11.07;;;;;;;;;;5106597;27;20200;-65
2023/08/24 08:19:12;;;;;;;12.65;11.57;;;;;;;;;;5094124;27;20262;-65
2023/08/24 08:21:38;;;;;;;17.92;16.38;;;;;;;;;;5090535;27;20243;-65
2023/08/24 08:24:05;;;;;;;11.65;10.73;;;;;;;;;;5094919;28;20204;-65
2023/08/24 08:26:31;;;;;;;10.43;9.50;;;;;;;;;;5093107;27;20660;-65
2023/08/24 08:28:58;;;;;;;11.05;10.10;;;;;;;;;;5093938;28;20739;-65
2023/08/24 08:31:25;;;;;;;16.52;10.57;;;;;;;;;;5092124;27;20202;-64
2023/08/24 08:33:51;;;;;;;10.93;10.02;;;;;;;;;;5093928;27;20201;-65
2023/08/24 08:36:19;;;;;;;15.45;14.10;;;;;;;;;;5092182;27;20613;-65
2023/08/24 08:38:45;;;;;;;17.52;15.38;;;;;;;;;;5095230;27;20592;-65
2023/08/24 08:41:13;;;;;;;11.75;10.45;;;;;;;;;;5104480;27;20204;-65
2023/08/24 08:43:39;;;;;;;11.45;10.55;;;;;;;;;;5088241;28;20228;-64
2023/08/24 08:46:06;;;;;;;10.45;9.55;;;;;;;;;;5092902;28;20194;-65
2023/08/24 08:48:33;;;;;;;10.07;9.40;;;;;;;;;;5090192;28;20198;-64
2023/08/24 08:51:02;;;;;;;10.90;9.88;;;;;;;;;;5094804;28;20327;-64
2023/08/24 08:53:29;;;;;;;11.63;10.35;;;;;;;;;;5102590;27;20235;-65
2023/08/24 08:55:57;;;;;;;12.95;10.88;;;;;;;;;;5105412;27;20685;-65
2023/08/24 08:58:24;;;;;;;11.05;10.02;;;;;;;;;;5106925;28;20599;-65
2023/08/24 09:00:52;;;;;;;13.65;12.48;;;;;;;;;;5101976;27;20205;-65
2023/08/24 09:03:18;;;;;;;12.15;9.60;;;;;;;;;;5094419;27;20201;-65
2023/08/24 09:05:47;;;;;;;11.93;10.43;;;;;;;;;;5099192;28;21115;-65
2023/08/24 09:08:14;;;;;;;15.48;11.68;;;;;;;;;;5105391;27;20273;-65
2023/08/24 09:10:42;;;;;;;13.93;12.60;;;;;;;;;;5102874;27;20263;-65
2023/08/24 09:13:08;;;;;;;12.13;10.98;;;;;;;;;;5094269;27;20593;-64
2023/08/24 09:15:35;;;;;;;12.20;11.02;;;;;;;;;;5093536;27;20298;-65
2023/08/24 09:18:03;;;;;;;11.60;10.57;;;;;;;;;;5093815;27;20221;-65
2023/08/24 09:20:29;;;;;;;16.02;11.15;;;;;;;;;;5091733;28;20205;-65
2023/08/24 09:22:57;;;;;;;11.45;10.65;;;;;;;;;;5092305;27;20671;-65
2023/08/24 09:25:23;;;;;;;11.60;10.52;;;;;;;;;;5092031;28;20590;-64
2023/08/24 09:27:58;;;;;;;20.02;11.55;;;;;;;;;;5094538;28;20237;-65
2023/08/24 09:30:29;;;;;;;12.55;11.55;;;;;;;;;;5106108;27;20566;-64
2023/08/24 09:32:56;;;;;;;12.05;11.10;;;;;;;;;;5104442;27;20205;-64
2023/08/24 09:35:22;;;;;;;16.63;15.23;;;;;;;;;;5105091;27;20274;-64
2023/08/24 09:37:50;;;;;;;14.23;12.85;;;;;;;;;;5105195;27;20228;-64
2023/08/24 09:40:25;;;;;;;13.52;12.38;;;;;;;37.32;nan;95174.53;5105641;27;20630;-64
2023/08/24 09:42:51;;;;;;;13.85;12.80;;;;;;;;;;5105632;27;20277;-64
2023/08/24 09:45:19;;;;;;;15.85;13.25;;;;;;;;;;5104736;27;20192;-64
2023/08/24 09:47:46;;;;;;;13.25;12.15;;;;;;;;;;5103797;27;20254;-64
2023/08/24 09:50:13;;;;;;;13.60;12.30;;;;;;;;;;5105226;28;20197;-64
2023/08/24 09:52:40;;;;;;;18.30;16.67;;;;;;;;;;5104403;28;20273;-64
2023/08/24 09:55:09;;;;;;;14.70;13.38;;;;;;;;;;5104371;28;20593;-63
2023/08/24 09:57:38;;;;;;;25.55;22.63;;;;;;;;;;5104971;28;20237;-64
2023/08/24 10:00:10;;;;;;;42.05;37.08;;;;;;;;;;5103542;28;20225;-65
2023/08/24 10:02:38;;;;;;;39.15;33.45;;;;;;;;;;5088983;27;20893;-65
2023/08/24 10:05:06;;;;;;;22.40;18.48;;;;;;;;;;5092473;28;20201;-64
2023/08/24 10:07:33;;;;;;;16.30;14.85;;;;;;;;;;5087946;28;20197;-63
2023/08/24 10:10:04;;;;;;;20.38;15.18;;;;;;;;;;5090744;28;20210;-64
2023/08/24 10:12:32;;;;;;;13.77;12.77;;;;;;;;;;5096421;28;20305;-64
2023/08/24 10:15:01;;;;;;;13.20;11.43;;;;;;;;;;5105610;28;20197;-63
2023/08/24 10:17:27;;;;;;;13.65;11.35;;;;;;;;;;5095715;28;20483;-64
2023/08/24 10:19:56;;;;;;;13.57;12.05;;;;;;;;;;5091934;28;20660;-65
2023/08/24 10:22:23;;;;;;;13.93;12.73;;;;;;;;;;5090429;28;20229;-64
2023/08/24 10:24:50;;;;;;;23.75;13.48;;;;;;;;;;5089995;28;20254;-63
2023/08/24 10:27:17;;;;;;;11.57;10.80;;;;;;;;;;5091793;28;20573;-64
2023/08/24 10:29:44;;;;;;;12.50;11.38;;;;;;;;;;5093622;28;20209;-64
2023/08/24 10:32:10;;;;;;;18.02;12.70;;;;;;;;;;5103278;28;20253;-63
2023/08/24 10:34:37;;;;;;;13.05;11.98;;;;;;;;;;5098909;28;20201;-63
2023/08/24 10:37:12;;;;;;;13.25;11.75;;;;;;;;;;5096113;28;20224;-64
2023/08/24 10:39:39;;;;;;;13.65;12.18;;;;;;;;;;5102078;28;20257;-64
2023/08/24 10:42:06;;;;;;;12.85;11.52;;;;;;;;;;5102418;28;20721;-62
2023/08/24 10:44:36;;;;;;;11.43;10.40;;;;;;;;;;5102329;28;20248;-65
2023/08/24 10:47:13;;;;;;;13.63;11.48;;;;;;;;;;5101863;28;20250;-64
2023/08/24 10:49:40;;;;;;;12.65;11.35;;;;;;;;;;5090845;28;20196;-63
2023/08/24 10:52:21;;;;;;;17.55;11.65;;;;;;;;;;5102274;28;22000;-64
2023/08/24 10:54:48;;;;;;;11.73;10.30;;;;;;;;;;5102780;28;20278;-64
2023/08/24 10:57:22;;;;;;;11.55;10.52;;;;;;;;;;5104511;28;20221;-63
2023/08/24 11:00:05;;;;;;;13.00;11.57;;;;;;;;;;5103922;28;20213;-64
2023/08/24 11:02:31;;;;;;;11.50;10.63;;;;;;;;;;5103765;28;20683;-65
2023/08/24 11:05:07;;;;;;;13.75;10.43;;;;;;;;;;5104181;28;20663;-64
2023/08/24 11:07:48;;;;;;;9.52;8.82;;;;;;;;;;5104478;28;20265;-65
2023/08/24 11:10:15;;;;;;;9.48;8.82;;;;;;;;;;5103657;28;20727;-63
2023/08/24 11:13:01;;;;;;;9.50;8.70;;;;;;;;;;5103247;28;20225;-63
2023/08/24 11:15:30;;;;;;;8.93;7.97;;;;;;;;;;5102985;28;20192;-64
2023/08/24 11:18:12;;;;;;;15.02;8.93;;;;;;;;;;5107155;27;20678;-64
2023/08/24 11:20:38;;;;;;;8.90;8.20;;;;;;;;;;5090137;27;20637;-64
2023/08/24 11:23:06;;;;;;;9.88;8.90;;;;;;;;;;5091676;28;20197;-64
2023/08/24 11:25:36;;;;;;;10.30;9.27;;;;;;;;;;5090771;27;20768;-64
2023/08/24 11:28:03;;;;;;;9.95;9.13;;;;;;;;;;5090515;28;20197;-63
2023/08/24 11:30:30;;;;;;;9.68;8.38;;;;;;;;;;5094100;28;20205;-64
2023/08/24 11:32:56;;;;;;;10.48;9.77;;;;;;;;;;5101780;27;20220;-64
2023/08/24 11:35:23;;;;;;;11.52;10.15;;;;;;;;;;5107136;28;20683;-64
2023/08/24 11:37:52;;;;;;;11.02;9.27;;;;;;;;;;5108090;27;20216;-62
2023/08/24 11:40:20;;;;;;;10.95;9.85;;;;;;;;;;5106080;27;20232;-63
2023/08/24 11:42:46;;;;;;;10.85;9.75;;;;;;;;;;5107160;27;20311;-64
2023/08/24 11:45:14;;;;;;;9.98;9.13;;;;;;;;;;5107135;28;20193;-62
2023/08/24 11:47:41;;;;;;;13.60;9.35;;;;;;;;;;5093728;27;20297;-63
2023/08/24 11:50:08;;;;;;;10.02;8.85;;;;;;;;;;5092789;27;20233;-63
2023/08/24 11:52:40;;;;;;;9.50;8.80;;;;;;;;;;5093238;27;20225;-63
2023/08/24 11:55:08;;;;;;;16.63;10.27;;;;;;;;;;5093030;27;20209;-64
2023/08/24 11:57:36;;;;;;;10.45;9.45;;;;;;;;;;5092987;28;20295;-64
2023/08/24 12:00:04;;;;;;;10.52;9.63;;;;;;;;;;5094840;27;20201;-63
2023/08/24 12:02:30;;;;;;;10.70;9.73;;;;;;;;;;5092164;27;20197;-64
2023/08/24 12:04:57;;;;;;;18.10;9.93;;;;;;;;;;5091345;27;20262;-63
2023/08/24 12:07:23;;;;;;;12.45;9.95;;;;;;;;;;5091290;27;20205;-63
2023/08/24 12:09:52;;;;;;;9.77;9.02;;;;;;;;;;5091816;27;20256;-64
2023/08/24 12:12:20;;;;;;;9.57;8.57;;;;;;;;;;5100003;28;20197;-63
2023/08/24 12:14:48;;;;;;;13.38;10.02;;;;;;;;;;5090758;28;20198;-63
2023/08/24 12:17:16;;;;;;;13.15;10.93;;;;;;;;;;5091146;27;20675;-63
2023/08/24 12:19:43;;;;;;;11.05;9.95;;;;;;;;;;5093123;27;20275;-63
2023/08/24 12:22:13;;;;;;;10.93;9.63;;;;;;;;;;5091285;27;20201;-64
2023/08/24 12:24:44;;;;;;;20.67;9.73;;;;;;;;;;5101325;27;20258;-64
2023/08/24 12:27:17;;;;;;;10.05;9.27;;;;;;;;;;5106132;28;20761;-64
2023/08/24 12:29:45;;;;;;;11.40;10.30;;;;;;;;;;5105188;27;20197;-63
2023/08/24 12:32:15;;;;;;;19.75;16.75;;;;;;;;;;5103994;28;20254;-63
2023/08/24 12:34:42;;;;;;;14.52;13.07;;;;;;;;;;5104411;28;20224;-64
2023/08/24 12:37:09;;;;;;;12.98;10.75;;;;;;;;;;5104810;27;20277;-65
2023/08/24 12:39:36;;;;;;;15.00;10.80;;;;;;;;;;5095214;27;20213;-65
2023/08/24 12:42:03;;;;;;;11.27;10.05;;;;;;;;;;5088341;28;20225;-65
2023/08/24 12:44:29;;;;;;;11.93;9.77;;;;;;;;;;5093111;27;20278;-64
2023/08/24 12:46:56;;;;;;;9.75;9.13;;;;;;;;;;5088383;28;20640;-65
2023/08/24 12:49:24;;;;;;;12.35;11.00;;;;;;;;;;5098747;27;20287;-64
2023/08/24 12:51:51;;;;;;;12.32;11.30;;;;;;;;;;5104439;28;20213;-65
2023/08/24 12:54:17;;;;;;;12.95;11.63;;;;;;;;;;5104132;28;20250;-64
2023/08/24 12:56:44;;;;;;;12.98;11.68;;;;;;;;;;5099656;28;20314;-65
2023/08/24 12:59:10;;;;;;;14.45;11.98;;;;;;;;;;5106412;27;20278;-64
2023/08/24 13:01:37;;;;;;;12.18;11.10;;;;;;;;;;5104934;28;20213;-64
2023/08/24 13:04:04;;;;;;;17.15;11.32;;;;;;;;;;5106413;27;20285;-64
2023/08/24 13:06:32;;;;;;;12.60;11.35;;;;;;;;;;5105968;27;20229;-64
2023/08/24 13:08:58;;;;;;;12.13;11.00;;;;;;;;;;5095787;28;20244;-64
2023/08/24 13:11:25;;;;;;;12.40;11.40;;;;;;;;;;5103759;27;20271;-64
2023/08/24 13:13:51;;;;;;;12.05;9.63;;;;;;;;;;5096833;28;20201;-64
2023/08/24 13:16:18;;;;;;;11.30;10.15;;;;;;;;;;5105450;27;20270;-65
2023/08/24 13:18:44;;;;;;;10.57;9.75;;;;;;;;;;5104003;27;20204;-65
2023/08/24 13:21:10;;;;;;;12.57;11.35;;;;;;;;;;5084256;27;20249;-65
2023/08/24 13:23:38;;;;;;;12.43;11.30;;;;;;;;;;5087412;28;20209;-63
2023/08/24 13:26:05;;;;;;;14.20;10.20;;;;;;;;;;5090048;27;20683;-64
2023/08/24 13:28:31;;;;;;;12.35;11.15;;;;;;;;;;5088075;27;20202;-64
2023/08/24 13:30:58;;;;;;;11.70;10.90;;;;;;;;;;5090271;27;20259;-63
2023/08/24 13:33:24;;;;;;;12.13;10.88;;;;;;;;;;5090300;28;20258;-64
2023/08/24 13:35:50;;;;;;;13.90;10.48;;;;;;;;;;5090470;28;20195;-63
2023/08/24 13:38:17;;;;;;;10.15;9.40;;;;;;;;;;5087788;28;20683;-64
2023/08/24 13:40:45;;;;;;;12.57;11.43;;;;;;;;;;5088522;28;20278;-64
2023/08/24 13:43:11;;;;;;;11.73;10.65;;;;;;;;;;5087626;28;20237;-63
2023/08/24 13:45:38;;;;;;;11.00;10.00;;;;;;;;;;5087423;28;20214;-64
2023/08/24 13:48:04;;;;;;;10.88;10.02;;;;;;;;;;5088097;27;20198;-64
2023/08/24 13:50:31;;;;;;;11.20;10.02;;;;;;;;;;5094448;28;20205;-64
2023/08/24 13:52:57;;;;;;;11.32;10.07;;;;;;;;;;5099059;28;20273;-63
2023/08/24 13:55:25;;;;;;;11.27;10.02;;;;;;;;;;5104169;28;20201;-64
2023/08/24 13:57:52;;;;;;;19.13;10.38;;;;;;;;;;5104699;28;20220;-64
2023/08/24 14:00:19;;;;;;;11.63;10.50;;;;;;;;;;5103955;28;20228;-65
2023/08/24 14:02:47;;;;;;;15.43;10.38;;;;;;;;;;5104416;28;20282;-64
2023/08/24 14:05:14;;;;;;;11.30;10.20;;;;;;;;;;5105121;28;20208;-64
2023/08/24 14:07:40;;;;;;;12.40;10.90;;;;;;;;;;5103603;28;20679;-64
2023/08/24 14:10:07;;;;;;;11.55;10.65;;;;;;;;;;5104707;28;20209;-63
2023/08/24 14:12:34;;;;;;;14.25;10.57;;;;;;;;;;5087482;27;20746;-64
2023/08/24 14:15:02;;;;;;;12.88;10.02;;;;;;;;;;5090835;27;20224;-62
2023/08/24 14:17:28;;;;;;;10.82;9.75;;;;;;;;;;5104850;28;20733;-64